sensor_id;sensor_type;location;lat;lon;timestamp;temperature;humidity
67557;DHT22;54387;53.526;49.300;2022-11-12T00:01:29;8.00;66.90
67557;DHT22;54387;53.526;49.300;2022-11-12T00:03:55;8.00;66.80
67557;DHT22;54387;53.526;49.300;2022-11-12T00:06:22;8.00;66.80
67557;DHT22;54387;53.526;49.300;2022-11-12T00:08:47;8.00;66.80
67557;DHT22;54387;53.526;49.300;2022-11-12T00:11:14;8.00;66.90
67557;DHT22;54387;53.526;49.300;2022-11-12T00:13:40;8.00;66.90
67557;DHT22;54387;53.526;49.300;2022-11-12T00:16:06;8.00;66.90
67557;DHT22;54387;53.526;49.300;2022-11-12T00:18:32;8.00;66.90
67557;DHT22;54387;53.526;49.300;2022-11-12T00:20:58;8.00;66.90
67557;DHT22;54387;53.526;49.300;2022-11-12T00:23:24;8.00;66.90
67557;DHT22;54387;53.526;49.300;2022-11-12T00:25:56;8.00;66.90
67557;DHT22;54387;53.526;49.300;2022-11-12T00:28:22;8.10;66.80
67557;DHT22;54387;53.526;49.300;2022-11-12T00:30:48;8.10;66.80
67557;DHT22;54387;53.526;49.300;2022-11-12T00:33:14;8.10;66.80
67557;DHT22;54387;53.526;49.300;2022-11-12T00:35:40;8.10;66.80
67557;DHT22;54387;53.526;49.300;2022-11-12T00:38:06;8.10;66.60
67557;DHT22;54387;53.526;49.300;2022-11-12T00:40:35;8.10;66.60
67557;DHT22;54387;53.526;49.300;2022-11-12T00:43:01;8.00;66.60
67557;DHT22;54387;53.526;49.300;2022-11-12T00:45:27;8.00;66.70
67557;DHT22;54387;53.526;49.300;2022-11-12T00:47:54;8.00;66.80
67557;DHT22;54387;53.526;49.300;2022-11-12T00:50:20;8.00;66.80
67557;DHT22;54387;53.526;49.300;2022-11-12T00:52:46;8.00;66.80
67557;DHT22;54387;53.526;49.300;2022-11-12T00:55:12;8.10;66.70
67557;DHT22;54387;53.526;49.300;2022-11-12T00:57:38;8.10;66.70
67557;DHT22;54387;53.526;49.300;2022-11-12T01:00:05;8.10;66.70
67557;DHT22;54387;53.526;49.300;2022-11-12T01:02:31;8.10;66.60
67557;DHT22;54387;53.526;49.300;2022-11-12T01:04:57;8.10;66.70
67557;DHT22;54387;53.526;49.300;2022-11-12T01:07:23;8.10;66.70
67557;DHT22;54387;53.526;49.300;2022-11-12T01:09:49;8.10;66.70
67557;DHT22;54387;53.526;49.300;2022-11-12T01:12:15;8.00;66.80
67557;DHT22;54387;53.526;49.300;2022-11-12T01:14:41;8.00;66.80
67557;DHT22;54387;53.526;49.300;2022-11-12T01:17:07;8.00;66.90
67557;DHT22;54387;53.526;49.300;2022-11-12T01:19:33;8.10;66.90
67557;DHT22;54387;53.526;49.300;2022-11-12T01:21:59;8.10;66.80
67557;DHT22;54387;53.526;49.300;2022-11-12T01:24:25;8.10;66.90
67557;DHT22;54387;53.526;49.300;2022-11-12T01:26:51;8.00;66.90
67557;DHT22;54387;53.526;49.300;2022-11-12T01:29:17;8.00;66.90
67557;DHT22;54387;53.526;49.300;2022-11-12T01:31:43;8.00;66.90
67557;DHT22;54387;53.526;49.300;2022-11-12T01:34:09;8.00;66.90
67557;DHT22;54387;53.526;49.300;2022-11-12T01:36:36;8.00;66.90
67557;DHT22;54387;53.526;49.300;2022-11-12T01:39:03;8.00;66.90
67557;DHT22;54387;53.526;49.300;2022-11-12T01:41:30;8.00;66.90
67557;DHT22;54387;53.526;49.300;2022-11-12T01:46:31;8.10;66.90
67557;DHT22;54387;53.526;49.300;2022-11-12T01:48:58;8.10;66.90
67557;DHT22;54387;53.526;49.300;2022-11-12T01:51:27;8.10;66.90
67557;DHT22;54387;53.526;49.300;2022-11-12T01:53:57;8.10;66.90
67557;DHT22;54387;53.526;49.300;2022-11-12T01:56:25;8.10;66.90
67557;DHT22;54387;53.526;49.300;2022-11-12T01:58:54;8.10;66.80
67557;DHT22;54387;53.526;49.300;2022-11-12T02:01:23;8.00;66.80
67557;DHT22;54387;53.526;49.300;2022-11-12T02:03:50;8.00;66.90
67557;DHT22;54387;53.526;49.300;2022-11-12T02:06:16;8.00;66.90
67557;DHT22;54387;53.526;49.300;2022-11-12T02:08:42;8.00;66.90
67557;DHT22;54387;53.526;49.300;2022-11-12T02:11:10;8.00;66.90
67557;DHT22;54387;53.526;49.300;2022-11-12T02:13:37;8.00;66.90
67557;DHT22;54387;53.526;49.300;2022-11-12T02:16:21;8.00;66.90
67557;DHT22;54387;53.526;49.300;2022-11-12T02:18:47;8.00;67.00
67557;DHT22;54387;53.526;49.300;2022-11-12T02:21:17;8.00;67.00
67557;DHT22;54387;53.526;49.300;2022-11-12T02:23:43;8.00;67.00
67557;DHT22;54387;53.526;49.300;2022-11-12T02:26:09;8.00;67.00
67557;DHT22;54387;53.526;49.300;2022-11-12T02:28:35;8.00;67.00
67557;DHT22;54387;53.526;49.300;2022-11-12T02:31:01;8.00;67.00
67557;DHT22;54387;53.526;49.300;2022-11-12T02:33:27;8.00;67.10
67557;DHT22;54387;53.526;49.300;2022-11-12T02:35:53;8.00;67.00
67557;DHT22;54387;53.526;49.300;2022-11-12T02:38:19;8.00;67.00
67557;DHT22;54387;53.526;49.300;2022-11-12T02:40:45;7.90;67.00
67557;DHT22;54387;53.526;49.300;2022-11-12T02:43:11;7.90;67.10
67557;DHT22;54387;53.526;49.300;2022-11-12T02:45:38;7.90;67.20
67557;DHT22;54387;53.526;49.300;2022-11-12T02:48:04;7.80;67.40
67557;DHT22;54387;53.526;49.300;2022-11-12T02:50:30;7.80;67.80
67557;DHT22;54387;53.526;49.300;2022-11-12T02:52:56;7.70;68.00
67557;DHT22;54387;53.526;49.300;2022-11-12T02:55:22;7.60;68.40
67557;DHT22;54387;53.526;49.300;2022-11-12T02:57:48;7.60;68.50
67557;DHT22;54387;53.526;49.300;2022-11-12T03:00:14;7.50;68.60
67557;DHT22;54387;53.526;49.300;2022-11-12T03:02:40;7.50;68.80
67557;DHT22;54387;53.526;49.300;2022-11-12T03:05:25;7.50;68.90
67557;DHT22;54387;53.526;49.300;2022-11-12T03:07:54;7.50;69.00
67557;DHT22;54387;53.526;49.300;2022-11-12T03:10:20;7.50;69.20
67557;DHT22;54387;53.526;49.300;2022-11-12T03:12:47;7.40;69.30
67557;DHT22;54387;53.526;49.300;2022-11-12T03:15:13;7.40;69.40
67557;DHT22;54387;53.526;49.300;2022-11-12T03:17:39;7.40;69.50
67557;DHT22;54387;53.526;49.300;2022-11-12T03:20:05;7.40;69.50
67557;DHT22;54387;53.526;49.300;2022-11-12T03:22:31;7.40;69.50
67557;DHT22;54387;53.526;49.300;2022-11-12T03:24:57;7.40;69.50
67557;DHT22;54387;53.526;49.300;2022-11-12T03:27:23;7.40;69.40
67557;DHT22;54387;53.526;49.300;2022-11-12T03:29:49;7.40;69.40
67557;DHT22;54387;53.526;49.300;2022-11-12T03:32:15;7.40;69.40
67557;DHT22;54387;53.526;49.300;2022-11-12T03:34:41;7.40;69.40
67557;DHT22;54387;53.526;49.300;2022-11-12T03:37:07;7.40;69.30
67557;DHT22;54387;53.526;49.300;2022-11-12T03:39:34;7.50;69.30
67557;DHT22;54387;53.526;49.300;2022-11-12T03:42:01;7.50;69.30
67557;DHT22;54387;53.526;49.300;2022-11-12T03:44:27;7.40;69.20
67557;DHT22;54387;53.526;49.300;2022-11-12T03:46:53;7.50;69.20
67557;DHT22;54387;53.526;49.300;2022-11-12T03:49:19;7.50;69.10
67557;DHT22;54387;53.526;49.300;2022-11-12T03:51:45;7.50;69.10
67557;DHT22;54387;53.526;49.300;2022-11-12T03:54:11;7.50;69.00
67557;DHT22;54387;53.526;49.300;2022-11-12T03:56:37;7.50;68.90
67557;DHT22;54387;53.526;49.300;2022-11-12T03:59:03;7.60;68.90
67557;DHT22;54387;53.526;49.300;2022-11-12T04:01:30;7.60;68.90
67557;DHT22;54387;53.526;49.300;2022-11-12T04:03:56;7.60;68.80
67557;DHT22;54387;53.526;49.300;2022-11-12T04:06:22;7.60;68.80
67557;DHT22;54387;53.526;49.300;2022-11-12T04:09:06;7.60;68.80
67557;DHT22;54387;53.526;49.300;2022-11-12T04:11:33;7.60;68.70
67557;DHT22;54387;53.526;49.300;2022-11-12T04:13:58;7.70;68.60
67557;DHT22;54387;53.526;49.300;2022-11-12T04:16:25;7.70;68.60
67557;DHT22;54387;53.526;49.300;2022-11-12T04:19:09;7.70;68.60
67557;DHT22;54387;53.526;49.300;2022-11-12T04:21:58;7.70;68.50
67557;DHT22;54387;53.526;49.300;2022-11-12T04:24:28;7.80;68.40
67557;DHT22;54387;53.526;49.300;2022-11-12T04:27:14;7.70;68.40
67557;DHT22;54387;53.526;49.300;2022-11-12T04:29:40;7.70;68.40
67557;DHT22;54387;53.526;49.300;2022-11-12T04:32:25;7.70;68.40
67557;DHT22;54387;53.526;49.300;2022-11-12T04:34:52;7.80;68.40
67557;DHT22;54387;53.526;49.300;2022-11-12T04:37:18;7.80;68.30
67557;DHT22;54387;53.526;49.300;2022-11-12T04:39:44;7.80;68.20
67557;DHT22;54387;53.526;49.300;2022-11-12T04:42:10;7.80;68.20
67557;DHT22;54387;53.526;49.300;2022-11-12T04:44:54;7.80;68.20
67557;DHT22;54387;53.526;49.300;2022-11-12T04:49:55;7.80;68.20
67557;DHT22;54387;53.526;49.300;2022-11-12T04:52:22;7.80;68.10
67557;DHT22;54387;53.526;49.300;2022-11-12T04:54:48;7.80;68.20
67557;DHT22;54387;53.526;49.300;2022-11-12T04:57:14;7.80;68.20
67557;DHT22;54387;53.526;49.300;2022-11-12T04:59:40;7.80;68.20
67557;DHT22;54387;53.526;49.300;2022-11-12T05:02:06;7.80;68.20
67557;DHT22;54387;53.526;49.300;2022-11-12T05:04:33;7.80;68.20
67557;DHT22;54387;53.526;49.300;2022-11-12T05:06:59;7.80;68.30
67557;DHT22;54387;53.526;49.300;2022-11-12T05:09:26;7.80;68.30
67557;DHT22;54387;53.526;49.300;2022-11-12T05:11:52;7.80;68.30
67557;DHT22;54387;53.526;49.300;2022-11-12T05:14:22;7.80;68.30
67557;DHT22;54387;53.526;49.300;2022-11-12T05:16:49;7.80;68.30
67557;DHT22;54387;53.526;49.300;2022-11-12T05:19:15;7.80;68.30
67557;DHT22;54387;53.526;49.300;2022-11-12T05:21:41;7.80;68.30
67557;DHT22;54387;53.526;49.300;2022-11-12T05:24:26;7.90;68.30
67557;DHT22;54387;53.526;49.300;2022-11-12T05:26:52;7.90;68.30
67557;DHT22;54387;53.526;49.300;2022-11-12T05:29:18;7.90;68.30
67557;DHT22;54387;53.526;49.300;2022-11-12T05:31:44;7.90;68.40
67557;DHT22;54387;53.526;49.300;2022-11-12T05:34:11;7.90;68.10
67557;DHT22;54387;53.526;49.300;2022-11-12T05:36:37;8.00;68.10
67557;DHT22;54387;53.526;49.300;2022-11-12T05:39:03;8.00;68.10
67557;DHT22;54387;53.526;49.300;2022-11-12T05:41:29;8.00;68.00
67557;DHT22;54387;53.526;49.300;2022-11-12T05:43:55;8.10;67.90
67557;DHT22;54387;53.526;49.300;2022-11-12T05:46:21;8.10;67.80
67557;DHT22;54387;53.526;49.300;2022-11-12T05:48:47;8.20;67.80
67557;DHT22;54387;53.526;49.300;2022-11-12T05:51:13;8.10;67.70
67557;DHT22;54387;53.526;49.300;2022-11-12T05:53:40;8.20;68.30
67557;DHT22;54387;53.526;49.300;2022-11-12T05:56:06;8.20;67.60
67557;DHT22;54387;53.526;49.300;2022-11-12T05:58:35;8.20;67.60
67557;DHT22;54387;53.526;49.300;2022-11-12T06:01:02;8.20;67.60
67557;DHT22;54387;53.526;49.300;2022-11-12T06:03:28;8.20;67.70
67557;DHT22;54387;53.526;49.300;2022-11-12T06:05:55;8.20;67.60
67557;DHT22;54387;53.526;49.300;2022-11-12T06:08:21;8.20;67.60
67557;DHT22;54387;53.526;49.300;2022-11-12T06:10:50;8.20;67.60
67557;DHT22;54387;53.526;49.300;2022-11-12T06:13:17;8.20;67.60
67557;DHT22;54387;53.526;49.300;2022-11-12T06:15:43;8.20;67.60
67557;DHT22;54387;53.526;49.300;2022-11-12T06:18:09;8.20;67.70
67557;DHT22;54387;53.526;49.300;2022-11-12T06:20:35;8.20;67.60
67557;DHT22;54387;53.526;49.300;2022-11-12T06:23:03;8.20;67.70
67557;DHT22;54387;53.526;49.300;2022-11-12T06:25:29;8.20;67.70
67557;DHT22;54387;53.526;49.300;2022-11-12T06:27:55;8.20;67.70
67557;DHT22;54387;53.526;49.300;2022-11-12T06:30:21;8.20;67.80
67557;DHT22;54387;53.526;49.300;2022-11-12T06:32:47;8.20;67.90
67557;DHT22;54387;53.526;49.300;2022-11-12T06:35:14;8.20;67.90
67557;DHT22;54387;53.526;49.300;2022-11-12T06:37:41;8.20;68.10
67557;DHT22;54387;53.526;49.300;2022-11-12T06:40:08;8.20;68.00
67557;DHT22;54387;53.526;49.300;2022-11-12T06:42:34;8.20;68.00
67557;DHT22;54387;53.526;49.300;2022-11-12T06:45:00;8.20;67.90
67557;DHT22;54387;53.526;49.300;2022-11-12T06:47:27;8.20;68.00
67557;DHT22;54387;53.526;49.300;2022-11-12T06:49:53;8.20;68.10
67557;DHT22;54387;53.526;49.300;2022-11-12T06:52:19;8.20;68.30
67557;DHT22;54387;53.526;49.300;2022-11-12T06:54:45;8.20;68.40
67557;DHT22;54387;53.526;49.300;2022-11-12T06:57:11;8.10;68.40
67557;DHT22;54387;53.526;49.300;2022-11-12T06:59:37;8.10;68.60
67557;DHT22;54387;53.526;49.300;2022-11-12T07:02:03;8.10;68.80
67557;DHT22;54387;53.526;49.300;2022-11-12T07:04:30;8.00;68.90
67557;DHT22;54387;53.526;49.300;2022-11-12T07:06:56;8.00;69.10
67557;DHT22;54387;53.526;49.300;2022-11-12T07:09:22;7.90;69.20
67557;DHT22;54387;53.526;49.300;2022-11-12T07:11:48;7.90;69.40
67557;DHT22;54387;53.526;49.300;2022-11-12T07:14:14;7.80;69.60
67557;DHT22;54387;53.526;49.300;2022-11-12T07:16:40;7.80;69.70
67557;DHT22;54387;53.526;49.300;2022-11-12T07:19:06;7.80;69.80
67557;DHT22;54387;53.526;49.300;2022-11-12T07:21:32;7.80;69.90
67557;DHT22;54387;53.526;49.300;2022-11-12T07:23:59;7.80;69.80
67557;DHT22;54387;53.526;49.300;2022-11-12T07:26:25;7.80;69.70
67557;DHT22;54387;53.526;49.300;2022-11-12T07:28:54;7.80;69.70
67557;DHT22;54387;53.526;49.300;2022-11-12T07:31:21;7.80;69.70
67557;DHT22;54387;53.526;49.300;2022-11-12T07:33:48;7.80;69.70
67557;DHT22;54387;53.526;49.300;2022-11-12T07:36:18;7.80;69.70
67557;DHT22;54387;53.526;49.300;2022-11-12T07:38:44;7.80;69.80
67557;DHT22;54387;53.526;49.300;2022-11-12T07:41:12;7.80;69.80
67557;DHT22;54387;53.526;49.300;2022-11-12T07:43:39;7.80;69.90
67557;DHT22;54387;53.526;49.300;2022-11-12T07:46:06;7.80;69.90
67557;DHT22;54387;53.526;49.300;2022-11-12T07:48:33;7.80;69.90
67557;DHT22;54387;53.526;49.300;2022-11-12T07:50:59;7.80;70.00
67557;DHT22;54387;53.526;49.300;2022-11-12T07:53:26;7.80;70.00
67557;DHT22;54387;53.526;49.300;2022-11-12T07:55:53;7.80;70.10
67557;DHT22;54387;53.526;49.300;2022-11-12T07:58:19;7.80;70.10
67557;DHT22;54387;53.526;49.300;2022-11-12T08:00:45;7.80;70.20
67557;DHT22;54387;53.526;49.300;2022-11-12T08:03:11;7.80;70.30
67557;DHT22;54387;53.526;49.300;2022-11-12T08:05:37;7.70;70.30
67557;DHT22;54387;53.526;49.300;2022-11-12T08:08:04;7.80;70.40
67557;DHT22;54387;53.526;49.300;2022-11-12T08:10:30;7.70;70.50
67557;DHT22;54387;53.526;49.300;2022-11-12T08:12:56;7.60;70.70
67557;DHT22;54387;53.526;49.300;2022-11-12T08:15:22;7.60;70.90
67557;DHT22;54387;53.526;49.300;2022-11-12T08:17:48;7.60;71.00
67557;DHT22;54387;53.526;49.300;2022-11-12T08:20:14;7.60;71.10
67557;DHT22;54387;53.526;49.300;2022-11-12T08:22:40;7.60;71.10
67557;DHT22;54387;53.526;49.300;2022-11-12T08:25:06;7.60;71.30
67557;DHT22;54387;53.526;49.300;2022-11-12T08:27:32;7.60;71.30
67557;DHT22;54387;53.526;49.300;2022-11-12T08:29:58;7.60;71.40
67557;DHT22;54387;53.526;49.300;2022-11-12T08:32:24;7.50;71.50
67557;DHT22;54387;53.526;49.300;2022-11-12T08:34:50;7.50;71.70
67557;DHT22;54387;53.526;49.300;2022-11-12T08:37:16;7.50;71.70
67557;DHT22;54387;53.526;49.300;2022-11-12T08:39:42;7.50;71.80
67557;DHT22;54387;53.526;49.300;2022-11-12T08:42:08;7.50;72.40
67557;DHT22;54387;53.526;49.300;2022-11-12T08:44:34;7.50;71.90
67557;DHT22;54387;53.526;49.300;2022-11-12T08:47:00;7.50;71.90
67557;DHT22;54387;53.526;49.300;2022-11-12T08:49:26;7.50;71.90
67557;DHT22;54387;53.526;49.300;2022-11-12T08:51:54;7.50;71.90
67557;DHT22;54387;53.526;49.300;2022-11-12T08:54:20;7.50;72.10
67557;DHT22;54387;53.526;49.300;2022-11-12T08:56:46;7.50;72.20
67557;DHT22;54387;53.526;49.300;2022-11-12T08:59:12;7.40;72.30
67557;DHT22;54387;53.526;49.300;2022-11-12T09:01:38;7.40;72.40
67557;DHT22;54387;53.526;49.300;2022-11-12T09:04:04;7.40;72.50
67557;DHT22;54387;53.526;49.300;2022-11-12T09:06:30;7.40;72.60
67557;DHT22;54387;53.526;49.300;2022-11-12T09:08:56;7.30;72.60
67557;DHT22;54387;53.526;49.300;2022-11-12T09:11:22;7.40;72.70
67557;DHT22;54387;53.526;49.300;2022-11-12T09:13:48;7.40;72.80
67557;DHT22;54387;53.526;49.300;2022-11-12T09:16:14;7.40;73.40
67557;DHT22;54387;53.526;49.300;2022-11-12T09:18:40;7.40;72.90
67557;DHT22;54387;53.526;49.300;2022-11-12T09:21:07;7.40;73.00
67557;DHT22;54387;53.526;49.300;2022-11-12T09:23:34;7.40;73.10
67557;DHT22;54387;53.526;49.300;2022-11-12T09:26:00;7.40;73.20
67557;DHT22;54387;53.526;49.300;2022-11-12T09:28:26;7.50;73.20
67557;DHT22;54387;53.526;49.300;2022-11-12T09:30:53;7.50;73.10
67557;DHT22;54387;53.526;49.300;2022-11-12T09:33:21;7.50;73.00
67557;DHT22;54387;53.526;49.300;2022-11-12T09:35:47;7.60;73.00
67557;DHT22;54387;53.526;49.300;2022-11-12T09:38:14;7.50;72.90
67557;DHT22;54387;53.526;49.300;2022-11-12T09:40:44;7.50;73.10
67557;DHT22;54387;53.526;49.300;2022-11-12T09:43:16;7.50;73.40
67557;DHT22;54387;53.526;49.300;2022-11-12T09:45:44;7.50;73.60
67557;DHT22;54387;53.526;49.300;2022-11-12T09:48:11;7.40;74.00
67557;DHT22;54387;53.526;49.300;2022-11-12T09:50:42;7.40;73.80
67557;DHT22;54387;53.526;49.300;2022-11-12T09:53:17;7.40;73.90
67557;DHT22;54387;53.526;49.300;2022-11-12T09:55:45;7.40;74.10
67557;DHT22;54387;53.526;49.300;2022-11-12T09:58:13;7.50;74.20
67557;DHT22;54387;53.526;49.300;2022-11-12T10:00:39;7.40;74.10
67557;DHT22;54387;53.526;49.300;2022-11-12T10:03:23;7.40;74.20
67557;DHT22;54387;53.526;49.300;2022-11-12T10:05:52;7.40;74.40
67557;DHT22;54387;53.526;49.300;2022-11-12T10:08:32;7.40;74.60
67557;DHT22;54387;53.526;49.300;2022-11-12T10:11:12;7.40;74.60
67557;DHT22;54387;53.526;49.300;2022-11-12T10:24:28;7.40;75.10
67557;DHT22;54387;53.526;49.300;2022-11-12T10:26:58;7.40;75.30
67557;DHT22;54387;53.526;49.300;2022-11-12T10:31:59;7.40;75.90
67557;DHT22;54387;53.526;49.300;2022-11-12T10:34:25;7.30;76.20
67557;DHT22;54387;53.526;49.300;2022-11-12T10:37:01;7.30;76.50
67557;DHT22;54387;53.526;49.300;2022-11-12T10:39:33;7.40;76.70
67557;DHT22;54387;53.526;49.300;2022-11-12T10:42:12;7.40;76.60
67557;DHT22;54387;53.526;49.300;2022-11-12T10:44:39;7.40;76.70
67557;DHT22;54387;53.526;49.300;2022-11-12T10:49:43;7.40;76.60
67557;DHT22;54387;53.526;49.300;2022-11-12T10:52:27;7.30;76.60
67557;DHT22;54387;53.526;49.300;2022-11-12T10:55:16;7.30;76.90
67557;DHT22;54387;53.526;49.300;2022-11-12T10:57:40;7.30;77.20
67557;DHT22;54387;53.526;49.300;2022-11-12T11:00:07;7.30;77.20
67557;DHT22;54387;53.526;49.300;2022-11-12T11:02:52;7.40;77.10
67557;DHT22;54387;53.526;49.300;2022-11-12T11:05:33;7.40;77.20
67557;DHT22;54387;53.526;49.300;2022-11-12T11:07:59;7.40;77.30
67557;DHT22;54387;53.526;49.300;2022-11-12T11:10:28;7.40;77.40
67557;DHT22;54387;53.526;49.300;2022-11-12T11:15:35;7.50;77.20
67557;DHT22;54387;53.526;49.300;2022-11-12T11:18:02;7.50;77.30
67557;DHT22;54387;53.526;49.300;2022-11-12T11:20:34;7.50;77.00
67557;DHT22;54387;53.526;49.300;2022-11-12T11:23:17;7.50;76.90
67557;DHT22;54387;53.526;49.300;2022-11-12T11:25:45;7.50;76.80
67557;DHT22;54387;53.526;49.300;2022-11-12T11:28:27;7.50;76.80
67557;DHT22;54387;53.526;49.300;2022-11-12T11:31:11;7.50;76.80
67557;DHT22;54387;53.526;49.300;2022-11-12T11:41:14;7.50;77.40
67557;DHT22;54387;53.526;49.300;2022-11-12T11:46:42;7.60;76.80
67557;DHT22;54387;53.526;49.300;2022-11-12T11:54:43;7.60;76.40
67557;DHT22;54387;53.526;49.300;2022-11-12T11:57:14;7.60;76.40
67557;DHT22;54387;53.526;49.300;2022-11-12T12:09:55;7.80;75.70
67557;DHT22;54387;53.526;49.300;2022-11-12T12:19:54;8.00;75.20
67557;DHT22;54387;53.526;49.300;2022-11-12T12:22:37;7.90;75.40
67557;DHT22;54387;53.526;49.300;2022-11-12T12:25:10;8.00;74.80
67557;DHT22;54387;53.526;49.300;2022-11-12T12:30:23;8.00;74.60
67557;DHT22;54387;53.526;49.300;2022-11-12T12:32:56;8.10;74.60
67557;DHT22;54387;53.526;49.300;2022-11-12T12:40:33;8.10;74.20
67557;DHT22;54387;53.526;49.300;2022-11-12T12:43:03;8.10;74.20
67557;DHT22;54387;53.526;49.300;2022-11-12T12:45:42;8.10;74.00
67557;DHT22;54387;53.526;49.300;2022-11-12T12:50:43;8.20;74.30
67557;DHT22;54387;53.526;49.300;2022-11-12T12:55:52;8.20;73.40
67557;DHT22;54387;53.526;49.300;2022-11-12T12:58:24;8.30;73.40
67557;DHT22;54387;53.526;49.300;2022-11-12T13:00:52;8.30;73.40
67557;DHT22;54387;53.526;49.300;2022-11-12T13:06:07;8.30;73.00
67557;DHT22;54387;53.526;49.300;2022-11-12T13:08:34;8.30;73.10
67557;DHT22;54387;53.526;49.300;2022-11-12T13:11:01;8.40;73.00
67557;DHT22;54387;53.526;49.300;2022-11-12T13:13:31;8.40;72.80
67557;DHT22;54387;53.526;49.300;2022-11-12T13:15:58;8.30;73.10
67557;DHT22;54387;53.526;49.300;2022-11-12T13:21:11;8.30;72.50
67557;DHT22;54387;53.526;49.300;2022-11-12T13:31:47;8.50;72.20
67557;DHT22;54387;53.526;49.300;2022-11-12T13:34:26;8.50;72.00
67557;DHT22;54387;53.526;49.300;2022-11-12T13:37:00;8.50;72.00
67557;DHT22;54387;53.526;49.300;2022-11-12T13:39:27;8.50;72.00
67557;DHT22;54387;53.526;49.300;2022-11-12T13:41:56;8.50;72.00
67557;DHT22;54387;53.526;49.300;2022-11-12T13:44:41;8.50;71.80
67557;DHT22;54387;53.526;49.300;2022-11-12T13:47:12;8.50;71.70
67557;DHT22;54387;53.526;49.300;2022-11-12T13:49:41;8.50;71.70
67557;DHT22;54387;53.526;49.300;2022-11-12T13:52:10;8.50;71.60
67557;DHT22;54387;53.526;49.300;2022-11-12T13:54:38;8.50;71.50
67557;DHT22;54387;53.526;49.300;2022-11-12T13:59:45;8.60;71.50
67557;DHT22;54387;53.526;49.300;2022-11-12T14:02:32;8.60;71.50
67557;DHT22;54387;53.526;49.300;2022-11-12T14:04:57;8.60;71.40
67557;DHT22;54387;53.526;49.300;2022-11-12T14:07:46;8.60;71.20
67557;DHT22;54387;53.526;49.300;2022-11-12T14:18:34;8.60;71.10
67557;DHT22;54387;53.526;49.300;2022-11-12T14:20:49;8.60;71.20
67557;DHT22;54387;53.526;49.300;2022-11-12T14:23:15;8.60;71.20
67557;DHT22;54387;53.526;49.300;2022-11-12T14:25:46;8.60;71.20
67557;DHT22;54387;53.526;49.300;2022-11-12T14:28:32;8.60;71.30
67557;DHT22;54387;53.526;49.300;2022-11-12T14:30:59;8.60;71.30
67557;DHT22;54387;53.526;49.300;2022-11-12T14:33:26;8.60;71.20
67557;DHT22;54387;53.526;49.300;2022-11-12T14:35:53;8.60;71.20
67557;DHT22;54387;53.526;49.300;2022-11-12T14:40:53;8.60;71.30
67557;DHT22;54387;53.526;49.300;2022-11-12T14:43:30;8.60;71.30
67557;DHT22;54387;53.526;49.300;2022-11-12T14:45:58;8.60;71.20
67557;DHT22;54387;53.526;49.300;2022-11-12T14:48:25;8.60;71.20
67557;DHT22;54387;53.526;49.300;2022-11-12T14:50:56;8.60;71.10
67557;DHT22;54387;53.526;49.300;2022-11-12T14:56:27;8.60;71.20
67557;DHT22;54387;53.526;49.300;2022-11-12T14:58:55;8.60;71.30
67557;DHT22;54387;53.526;49.300;2022-11-12T15:01:29;8.60;71.20
67557;DHT22;54387;53.526;49.300;2022-11-12T15:06:40;8.60;71.10
67557;DHT22;54387;53.526;49.300;2022-11-12T15:09:06;8.70;71.10
67557;DHT22;54387;53.526;49.300;2022-11-12T15:13:59;8.70;71.20
67557;DHT22;54387;53.526;49.300;2022-11-12T15:16:27;8.70;71.10
67557;DHT22;54387;53.526;49.300;2022-11-12T15:19:00;8.70;70.90
67557;DHT22;54387;53.526;49.300;2022-11-12T15:21:27;8.70;71.00
67557;DHT22;54387;53.526;49.300;2022-11-12T15:26:23;8.60;71.00
67557;DHT22;54387;53.526;49.300;2022-11-12T15:28:57;8.60;71.10
67557;DHT22;54387;53.526;49.300;2022-11-12T15:31:24;8.60;71.10
67557;DHT22;54387;53.526;49.300;2022-11-12T15:33:49;8.60;71.30
67557;DHT22;54387;53.526;49.300;2022-11-12T15:36:16;8.50;71.60
67557;DHT22;54387;53.526;49.300;2022-11-12T15:38:47;8.40;72.10
67557;DHT22;54387;53.526;49.300;2022-11-12T15:41:18;8.30;72.60
67557;DHT22;54387;53.526;49.300;2022-11-12T15:43:45;8.20;73.20
67557;DHT22;54387;53.526;49.300;2022-11-12T15:46:14;8.10;73.90
67557;DHT22;54387;53.526;49.300;2022-11-12T15:48:41;8.00;74.40
67557;DHT22;54387;53.526;49.300;2022-11-12T15:51:08;7.90;75.00
67557;DHT22;54387;53.526;49.300;2022-11-12T15:53:34;7.80;75.40
67557;DHT22;54387;53.526;49.300;2022-11-12T15:56:12;7.80;76.00
67557;DHT22;54387;53.526;49.300;2022-11-12T15:58:40;7.80;76.50
67557;DHT22;54387;53.526;49.300;2022-11-12T16:01:06;7.70;76.80
67557;DHT22;54387;53.526;49.300;2022-11-12T16:03:32;7.70;77.20
67557;DHT22;54387;53.526;49.300;2022-11-12T16:05:59;7.70;77.60
67557;DHT22;54387;53.526;49.300;2022-11-12T16:08:25;7.70;77.80
67557;DHT22;54387;53.526;49.300;2022-11-12T16:10:51;7.70;78.00
67557;DHT22;54387;53.526;49.300;2022-11-12T16:13:26;7.60;78.10
67557;DHT22;54387;53.526;49.300;2022-11-12T16:15:53;7.70;78.40
67557;DHT22;54387;53.526;49.300;2022-11-12T16:18:19;7.60;78.60
67557;DHT22;54387;53.526;49.300;2022-11-12T16:20:45;7.70;78.60
67557;DHT22;54387;53.526;49.300;2022-11-12T16:23:20;7.70;78.80
67557;DHT22;54387;53.526;49.300;2022-11-12T16:25:46;7.60;78.60
67557;DHT22;54387;53.526;49.300;2022-11-12T16:28:12;7.60;78.80
67557;DHT22;54387;53.526;49.300;2022-11-12T16:30:39;7.70;79.00
67557;DHT22;54387;53.526;49.300;2022-11-12T16:33:05;7.60;78.90
67557;DHT22;54387;53.526;49.300;2022-11-12T16:35:32;7.70;79.10
67557;DHT22;54387;53.526;49.300;2022-11-12T16:37:59;7.60;78.90
67557;DHT22;54387;53.526;49.300;2022-11-12T16:40:26;7.60;79.00
67557;DHT22;54387;53.526;49.300;2022-11-12T16:42:52;7.60;78.90
67557;DHT22;54387;53.526;49.300;2022-11-12T16:45:22;7.60;79.10
67557;DHT22;54387;53.526;49.300;2022-11-12T16:47:49;7.60;79.10
67557;DHT22;54387;53.526;49.300;2022-11-12T16:50:17;7.60;78.90
67557;DHT22;54387;53.526;49.300;2022-11-12T16:52:43;7.50;79.10
67557;DHT22;54387;53.526;49.300;2022-11-12T16:55:09;7.50;79.40
67557;DHT22;54387;53.526;49.300;2022-11-12T16:57:35;7.50;79.30
67557;DHT22;54387;53.526;49.300;2022-11-12T17:00:02;7.50;79.30
67557;DHT22;54387;53.526;49.300;2022-11-12T17:02:28;7.50;79.40
67557;DHT22;54387;53.526;49.300;2022-11-12T17:04:54;7.50;79.30
67557;DHT22;54387;53.526;49.300;2022-11-12T17:07:20;7.50;79.30
67557;DHT22;54387;53.526;49.300;2022-11-12T17:09:46;7.50;79.20
67557;DHT22;54387;53.526;49.300;2022-11-12T17:12:12;7.50;79.40
67557;DHT22;54387;53.526;49.300;2022-11-12T17:14:38;7.50;79.40
67557;DHT22;54387;53.526;49.300;2022-11-12T17:17:04;7.50;79.50
67557;DHT22;54387;53.526;49.300;2022-11-12T17:19:30;7.50;79.70
67557;DHT22;54387;53.526;49.300;2022-11-12T17:21:56;7.50;79.60
67557;DHT22;54387;53.526;49.300;2022-11-12T17:24:24;7.50;79.50